sensor_id;sensor_type;location;lat;lon;timestamp;temperature;humidity
11922;DHT22;6021;51.182;3.160;2023-08-21T00:00:52;17.70;99.90
11922;DHT22;6021;51.182;3.160;2023-08-21T00:03:20;17.60;99.90
11922;DHT22;6021;51.182;3.160;2023-08-21T00:05:49;17.70;99.90
11922;DHT22;6021;51.182;3.160;2023-08-21T00:08:17;17.60;99.90
11922;DHT22;6021;51.182;3.160;2023-08-21T00:10:46;17.60;99.90
11922;DHT22;6021;51.182;3.160;2023-08-21T00:13:14;17.50;99.90
11922;DHT22;6021;51.182;3.160;2023-08-21T00:15:43;17.50;99.90
11922;DHT22;6021;51.182;3.160;2023-08-21T00:18:11;17.50;99.90
11922;DHT22;6021;51.182;3.160;2023-08-21T00:20:40;17.50;99.90
11922;DHT22;6021;51.182;3.160;2023-08-21T00:23:10;17.60;99.90
11922;DHT22;6021;51.182;3.160;2023-08-21T00:25:38;17.50;99.90
11922;DHT22;6021;51.182;3.160;2023-08-21T00:28:06;17.40;99.90
11922;DHT22;6021;51.182;3.160;2023-08-21T00:30:35;17.40;99.90
11922;DHT22;6021;51.182;3.160;2023-08-21T00:33:03;17.30;99.90
11922;DHT22;6021;51.182;3.160;2023-08-21T00:35:31;17.30;99.90
11922;DHT22;6021;51.182;3.160;2023-08-21T00:38:00;17.30;99.90
11922;DHT22;6021;51.182;3.160;2023-08-21T00:40:28;17.40;99.90
11922;DHT22;6021;51.182;3.160;2023-08-21T00:42:58;17.40;99.90
11922;DHT22;6021;51.182;3.160;2023-08-21T00:45:27;17.50;99.90
11922;DHT22;6021;51.182;3.160;2023-08-21T00:47:55;17.50;99.90
11922;DHT22;6021;51.182;3.160;2023-08-21T00:50:24;17.50;99.90
11922;DHT22;6021;51.182;3.160;2023-08-21T00:52:52;17.60;99.90
11922;DHT22;6021;51.182;3.160;2023-08-21T00:55:21;17.60;99.90
11922;DHT22;6021;51.182;3.160;2023-08-21T00:57:49;17.60;99.90
11922;DHT22;6021;51.182;3.160;2023-08-21T01:00:18;17.60;99.90
11922;DHT22;6021;51.182;3.160;2023-08-21T01:02:47;17.60;99.90
11922;DHT22;6021;51.182;3.160;2023-08-21T01:05:17;17.60;99.90
11922;DHT22;6021;51.182;3.160;2023-08-21T01:07:59;17.50;99.90
11922;DHT22;6021;51.182;3.160;2023-08-21T01:10:33;17.60;99.90
11922;DHT22;6021;51.182;3.160;2023-08-21T01:15:33;17.50;99.90
11922;DHT22;6021;51.182;3.160;2023-08-21T01:18:01;17.40;99.90
11922;DHT22;6021;51.182;3.160;2023-08-21T01:20:31;17.30;99.90
11922;DHT22;6021;51.182;3.160;2023-08-21T01:23:04;17.30;99.90
11922;DHT22;6021;51.182;3.160;2023-08-21T01:25:35;17.30;99.90
11922;DHT22;6021;51.182;3.160;2023-08-21T01:28:05;17.30;99.90
11922;DHT22;6021;51.182;3.160;2023-08-21T01:30:34;17.20;99.90
11922;DHT22;6021;51.182;3.160;2023-08-21T01:33:10;17.20;99.90
11922;DHT22;6021;51.182;3.160;2023-08-21T01:35:40;17.20;99.90
11922;DHT22;6021;51.182;3.160;2023-08-21T01:38:09;17.20;99.90
11922;DHT22;6021;51.182;3.160;2023-08-21T01:40:38;17.20;99.90
11922;DHT22;6021;51.182;3.160;2023-08-21T01:43:06;17.20;99.90
11922;DHT22;6021;51.182;3.160;2023-08-21T01:45:34;17.20;99.90
11922;DHT22;6021;51.182;3.160;2023-08-21T01:48:03;17.20;99.90
11922;DHT22;6021;51.182;3.160;2023-08-21T01:50:31;17.10;99.90
11922;DHT22;6021;51.182;3.160;2023-08-21T01:52:59;17.10;99.90
11922;DHT22;6021;51.182;3.160;2023-08-21T01:55:28;17.00;99.90
11922;DHT22;6021;51.182;3.160;2023-08-21T01:57:57;17.00;99.90
11922;DHT22;6021;51.182;3.160;2023-08-21T02:00:25;17.00;99.90
11922;DHT22;6021;51.182;3.160;2023-08-21T02:02:54;17.00;99.90
11922;DHT22;6021;51.182;3.160;2023-08-21T02:05:22;16.90;99.90
11922;DHT22;6021;51.182;3.160;2023-08-21T02:07:50;16.90;99.90
11922;DHT22;6021;51.182;3.160;2023-08-21T02:10:19;16.90;99.90
11922;DHT22;6021;51.182;3.160;2023-08-21T02:12:48;16.90;99.90
11922;DHT22;6021;51.182;3.160;2023-08-21T02:15:16;16.90;99.90
11922;DHT22;6021;51.182;3.160;2023-08-21T02:17:45;16.90;99.90
11922;DHT22;6021;51.182;3.160;2023-08-21T02:20:13;16.90;99.90
11922;DHT22;6021;51.182;3.160;2023-08-21T02:22:42;16.90;99.90
11922;DHT22;6021;51.182;3.160;2023-08-21T02:25:10;16.90;99.90
11922;DHT22;6021;51.182;3.160;2023-08-21T02:27:38;16.90;99.90
11922;DHT22;6021;51.182;3.160;2023-08-21T02:30:07;16.80;99.90
11922;DHT22;6021;51.182;3.160;2023-08-21T02:32:35;16.70;99.90
11922;DHT22;6021;51.182;3.160;2023-08-21T02:35:06;16.70;99.90
11922;DHT22;6021;51.182;3.160;2023-08-21T02:37:35;16.60;99.90
11922;DHT22;6021;51.182;3.160;2023-08-21T02:40:06;16.60;99.90
11922;DHT22;6021;51.182;3.160;2023-08-21T02:42:36;16.50;99.90
11922;DHT22;6021;51.182;3.160;2023-08-21T02:45:05;16.40;99.90
11922;DHT22;6021;51.182;3.160;2023-08-21T02:47:38;16.30;99.90
11922;DHT22;6021;51.182;3.160;2023-08-21T02:50:08;16.40;99.90
11922;DHT22;6021;51.182;3.160;2023-08-21T02:52:37;16.40;99.90
11922;DHT22;6021;51.182;3.160;2023-08-21T02:55:06;16.30;99.90
11922;DHT22;6021;51.182;3.160;2023-08-21T02:57:34;16.30;99.90
11922;DHT22;6021;51.182;3.160;2023-08-21T03:00:03;16.30;99.90
11922;DHT22;6021;51.182;3.160;2023-08-21T03:02:31;16.20;99.90
11922;DHT22;6021;51.182;3.160;2023-08-21T03:05:00;16.20;99.90
11922;DHT22;6021;51.182;3.160;2023-08-21T03:07:28;16.20;99.90
11922;DHT22;6021;51.182;3.160;2023-08-21T03:09:56;16.10;99.90
11922;DHT22;6021;51.182;3.160;2023-08-21T03:12:25;16.00;99.90
11922;DHT22;6021;51.182;3.160;2023-08-21T03:14:53;16.00;99.90
11922;DHT22;6021;51.182;3.160;2023-08-21T03:17:22;16.00;99.90
11922;DHT22;6021;51.182;3.160;2023-08-21T03:19:50;16.00;99.90
11922;DHT22;6021;51.182;3.160;2023-08-21T03:22:18;16.00;99.90
11922;DHT22;6021;51.182;3.160;2023-08-21T03:24:47;16.00;99.90
11922;DHT22;6021;51.182;3.160;2023-08-21T03:27:15;15.90;99.90
11922;DHT22;6021;51.182;3.160;2023-08-21T03:29:47;15.80;99.90
11922;DHT22;6021;51.182;3.160;2023-08-21T03:32:18;15.80;99.90
11922;DHT22;6021;51.182;3.160;2023-08-21T03:34:46;15.80;99.90
11922;DHT22;6021;51.182;3.160;2023-08-21T03:37:15;15.80;99.90
11922;DHT22;6021;51.182;3.160;2023-08-21T03:39:43;15.90;99.90
11922;DHT22;6021;51.182;3.160;2023-08-21T03:42:12;15.90;99.90
11922;DHT22;6021;51.182;3.160;2023-08-21T03:44:40;15.90;99.90
11922;DHT22;6021;51.182;3.160;2023-08-21T03:47:08;15.80;99.90
11922;DHT22;6021;51.182;3.160;2023-08-21T03:49:37;15.80;99.90
11922;DHT22;6021;51.182;3.160;2023-08-21T03:52:05;15.80;99.90
11922;DHT22;6021;51.182;3.160;2023-08-21T03:54:33;15.80;99.90
11922;DHT22;6021;51.182;3.160;2023-08-21T03:57:02;15.80;99.90
11922;DHT22;6021;51.182;3.160;2023-08-21T03:59:30;15.90;99.90
11922;DHT22;6021;51.182;3.160;2023-08-21T04:01:59;15.80;99.90
11922;DHT22;6021;51.182;3.160;2023-08-21T04:04:27;15.90;99.90
11922;DHT22;6021;51.182;3.160;2023-08-21T04:06:55;15.90;99.90
11922;DHT22;6021;51.182;3.160;2023-08-21T04:09:23;15.90;99.90
11922;DHT22;6021;51.182;3.160;2023-08-21T04:11:52;15.90;99.90
11922;DHT22;6021;51.182;3.160;2023-08-21T04:14:20;15.90;99.90
11922;DHT22;6021;51.182;3.160;2023-08-21T04:16:49;15.90;99.90
11922;DHT22;6021;51.182;3.160;2023-08-21T04:19:17;15.90;99.90
11922;DHT22;6021;51.182;3.160;2023-08-21T04:21:45;15.90;99.90
11922;DHT22;6021;51.182;3.160;2023-08-21T04:24:14;15.90;99.90
11922;DHT22;6021;51.182;3.160;2023-08-21T04:26:42;15.90;99.90
11922;DHT22;6021;51.182;3.160;2023-08-21T04:29:10;15.80;99.90
11922;DHT22;6021;51.182;3.160;2023-08-21T04:31:39;15.80;99.90
11922;DHT22;6021;51.182;3.160;2023-08-21T04:34:07;15.80;99.90
11922;DHT22;6021;51.182;3.160;2023-08-21T04:36:35;15.80;99.90
11922;DHT22;6021;51.182;3.160;2023-08-21T04:39:04;15.80;99.90
11922;DHT22;6021;51.182;3.160;2023-08-21T04:41:32;15.80;99.90
11922;DHT22;6021;51.182;3.160;2023-08-21T04:44:01;15.90;99.90
11922;DHT22;6021;51.182;3.160;2023-08-21T04:46:30;15.90;99.90
11922;DHT22;6021;51.182;3.160;2023-08-21T04:48:58;16.00;99.90
11922;DHT22;6021;51.182;3.160;2023-08-21T04:51:27;16.00;99.90
11922;DHT22;6021;51.182;3.160;2023-08-21T04:53:55;16.00;99.90
11922;DHT22;6021;51.182;3.160;2023-08-21T04:56:24;16.10;99.90
11922;DHT22;6021;51.182;3.160;2023-08-21T04:58:55;16.10;99.90
11922;DHT22;6021;51.182;3.160;2023-08-21T05:01:24;16.10;99.90
11922;DHT22;6021;51.182;3.160;2023-08-21T05:03:52;16.10;99.90
11922;DHT22;6021;51.182;3.160;2023-08-21T05:06:21;16.10;99.90
11922;DHT22;6021;51.182;3.160;2023-08-21T05:08:50;16.10;99.90
11922;DHT22;6021;51.182;3.160;2023-08-21T05:11:19;16.10;99.90
11922;DHT22;6021;51.182;3.160;2023-08-21T05:13:47;16.10;99.90
11922;DHT22;6021;51.182;3.160;2023-08-21T05:16:15;16.10;99.90
11922;DHT22;6021;51.182;3.160;2023-08-21T05:18:44;16.10;99.90
11922;DHT22;6021;51.182;3.160;2023-08-21T05:21:12;16.10;99.90
11922;DHT22;6021;51.182;3.160;2023-08-21T05:23:41;16.20;99.90
11922;DHT22;6021;51.182;3.160;2023-08-21T05:26:09;16.20;99.90
11922;DHT22;6021;51.182;3.160;2023-08-21T05:28:37;16.20;99.90
11922;DHT22;6021;51.182;3.160;2023-08-21T05:31:06;16.10;99.90
11922;DHT22;6021;51.182;3.160;2023-08-21T05:33:34;16.10;99.90
11922;DHT22;6021;51.182;3.160;2023-08-21T05:36:02;16.10;99.90
11922;DHT22;6021;51.182;3.160;2023-08-21T05:38:32;16.10;99.90
11922;DHT22;6021;51.182;3.160;2023-08-21T05:41:00;16.10;99.90
11922;DHT22;6021;51.182;3.160;2023-08-21T05:43:28;16.10;99.90
11922;DHT22;6021;51.182;3.160;2023-08-21T05:45:57;16.20;99.90
11922;DHT22;6021;51.182;3.160;2023-08-21T05:48:26;16.20;99.90
11922;DHT22;6021;51.182;3.160;2023-08-21T05:50:54;16.30;99.90
11922;DHT22;6021;51.182;3.160;2023-08-21T05:53:22;16.30;99.90
11922;DHT22;6021;51.182;3.160;2023-08-21T05:55:51;16.40;99.90
11922;DHT22;6021;51.182;3.160;2023-08-21T05:58:20;16.50;99.90
11922;DHT22;6021;51.182;3.160;2023-08-21T06:00:48;16.50;99.90
11922;DHT22;6021;51.182;3.160;2023-08-21T06:03:17;16.40;99.90
11922;DHT22;6021;51.182;3.160;2023-08-21T06:05:45;16.40;99.90
11922;DHT22;6021;51.182;3.160;2023-08-21T06:08:14;16.40;99.90
11922;DHT22;6021;51.182;3.160;2023-08-21T06:10:42;16.40;99.90
11922;DHT22;6021;51.182;3.160;2023-08-21T06:13:11;16.30;99.90
11922;DHT22;6021;51.182;3.160;2023-08-21T06:15:39;16.40;99.90
11922;DHT22;6021;51.182;3.160;2023-08-21T06:18:09;16.40;99.90
11922;DHT22;6021;51.182;3.160;2023-08-21T06:20:37;16.40;99.90
11922;DHT22;6021;51.182;3.160;2023-08-21T06:23:05;16.50;99.90
11922;DHT22;6021;51.182;3.160;2023-08-21T06:25:34;16.50;99.90
11922;DHT22;6021;51.182;3.160;2023-08-21T06:28:02;16.60;99.90
11922;DHT22;6021;51.182;3.160;2023-08-21T06:30:31;16.50;99.90
11922;DHT22;6021;51.182;3.160;2023-08-21T06:32:59;16.60;99.90
11922;DHT22;6021;51.182;3.160;2023-08-21T06:35:28;16.60;99.90
11922;DHT22;6021;51.182;3.160;2023-08-21T06:37:56;16.60;99.90
11922;DHT22;6021;51.182;3.160;2023-08-21T06:40:24;16.70;99.90
11922;DHT22;6021;51.182;3.160;2023-08-21T06:42:53;16.70;99.90
11922;DHT22;6021;51.182;3.160;2023-08-21T06:45:21;16.80;99.90
11922;DHT22;6021;51.182;3.160;2023-08-21T06:47:49;16.80;99.90
11922;DHT22;6021;51.182;3.160;2023-08-21T06:50:18;16.90;99.90
11922;DHT22;6021;51.182;3.160;2023-08-21T06:52:47;17.00;99.90
11922;DHT22;6021;51.182;3.160;2023-08-21T06:55:15;17.00;99.90
11922;DHT22;6021;51.182;3.160;2023-08-21T06:57:44;17.10;99.90
11922;DHT22;6021;51.182;3.160;2023-08-21T07:00:13;17.10;99.90
11922;DHT22;6021;51.182;3.160;2023-08-21T07:02:41;17.10;99.90
11922;DHT22;6021;51.182;3.160;2023-08-21T07:05:10;17.20;99.90
11922;DHT22;6021;51.182;3.160;2023-08-21T07:07:38;17.20;99.90
11922;DHT22;6021;51.182;3.160;2023-08-21T07:10:07;17.30;99.90
11922;DHT22;6021;51.182;3.160;2023-08-21T07:12:36;17.40;99.90
11922;DHT22;6021;51.182;3.160;2023-08-21T07:15:05;17.40;99.90
11922;DHT22;6021;51.182;3.160;2023-08-21T07:17:34;17.40;99.90
11922;DHT22;6021;51.182;3.160;2023-08-21T07:20:02;17.50;99.90
11922;DHT22;6021;51.182;3.160;2023-08-21T07:22:31;17.60;99.90
11922;DHT22;6021;51.182;3.160;2023-08-21T07:24:59;17.70;99.90
11922;DHT22;6021;51.182;3.160;2023-08-21T07:27:30;17.70;99.90
11922;DHT22;6021;51.182;3.160;2023-08-21T07:29:58;17.80;99.90
11922;DHT22;6021;51.182;3.160;2023-08-21T07:32:26;17.80;99.90
11922;DHT22;6021;51.182;3.160;2023-08-21T07:34:55;17.90;99.90
11922;DHT22;6021;51.182;3.160;2023-08-21T07:37:23;18.00;99.90
11922;DHT22;6021;51.182;3.160;2023-08-21T07:39:52;18.00;99.90
11922;DHT22;6021;51.182;3.160;2023-08-21T07:42:20;18.00;99.90
11922;DHT22;6021;51.182;3.160;2023-08-21T07:44:49;18.20;99.90
11922;DHT22;6021;51.182;3.160;2023-08-21T07:47:17;18.20;99.90
11922;DHT22;6021;51.182;3.160;2023-08-21T07:49:45;18.40;99.90
11922;DHT22;6021;51.182;3.160;2023-08-21T07:52:14;18.50;99.90
11922;DHT22;6021;51.182;3.160;2023-08-21T07:54:43;18.60;99.90
11922;DHT22;6021;51.182;3.160;2023-08-21T07:57:12;18.70;99.90
11922;DHT22;6021;51.182;3.160;2023-08-21T07:59:41;18.70;99.90
11922;DHT22;6021;51.182;3.160;2023-08-21T08:02:09;18.80;99.90
11922;DHT22;6021;51.182;3.160;2023-08-21T08:04:39;18.90;99.90
11922;DHT22;6021;51.182;3.160;2023-08-21T08:07:09;18.90;99.90
11922;DHT22;6021;51.182;3.160;2023-08-21T08:09:38;19.00;99.90
11922;DHT22;6021;51.182;3.160;2023-08-21T08:12:06;19.10;99.90
11922;DHT22;6021;51.182;3.160;2023-08-21T08:14:35;19.10;99.90
11922;DHT22;6021;51.182;3.160;2023-08-21T08:17:03;19.20;99.90
11922;DHT22;6021;51.182;3.160;2023-08-21T08:19:32;19.40;99.90
11922;DHT22;6021;51.182;3.160;2023-08-21T08:22:00;19.30;99.90
11922;DHT22;6021;51.182;3.160;2023-08-21T08:24:29;19.40;99.90
11922;DHT22;6021;51.182;3.160;2023-08-21T08:26:57;19.40;99.90
11922;DHT22;6021;51.182;3.160;2023-08-21T08:29:25;19.30;99.90
11922;DHT22;6021;51.182;3.160;2023-08-21T08:31:53;19.30;99.90
11922;DHT22;6021;51.182;3.160;2023-08-21T08:34:22;19.40;99.90
11922;DHT22;6021;51.182;3.160;2023-08-21T08:36:50;19.50;99.90
11922;DHT22;6021;51.182;3.160;2023-08-21T08:39:18;19.60;99.90
11922;DHT22;6021;51.182;3.160;2023-08-21T08:41:58;19.60;99.90
11922;DHT22;6021;51.182;3.160;2023-08-21T08:44:24;19.70;99.90
11922;DHT22;6021;51.182;3.160;2023-08-21T08:46:54;19.80;99.90
11922;DHT22;6021;51.182;3.160;2023-08-21T08:49:23;19.90;99.90
11922;DHT22;6021;51.182;3.160;2023-08-21T08:51:53;19.80;99.90
11922;DHT22;6021;51.182;3.160;2023-08-21T08:54:22;19.90;99.90
11922;DHT22;6021;51.182;3.160;2023-08-21T08:56:53;19.90;99.90
11922;DHT22;6021;51.182;3.160;2023-08-21T08:59:21;19.80;99.90
11922;DHT22;6021;51.182;3.160;2023-08-21T09:01:51;19.90;99.90
11922;DHT22;6021;51.182;3.160;2023-08-21T09:04:21;19.90;99.90
11922;DHT22;6021;51.182;3.160;2023-08-21T09:06:50;20.00;99.90
11922;DHT22;6021;51.182;3.160;2023-08-21T09:09:18;20.10;99.90
11922;DHT22;6021;51.182;3.160;2023-08-21T09:11:47;20.00;99.90
11922;DHT22;6021;51.182;3.160;2023-08-21T09:14:25;20.00;99.90
11922;DHT22;6021;51.182;3.160;2023-08-21T09:17:01;20.10;99.90
11922;DHT22;6021;51.182;3.160;2023-08-21T09:19:32;20.10;99.90
11922;DHT22;6021;51.182;3.160;2023-08-21T09:22:17;20.00;99.90
11922;DHT22;6021;51.182;3.160;2023-08-21T09:27:13;20.00;99.90
11922;DHT22;6021;51.182;3.160;2023-08-21T09:29:41;20.00;99.90
11922;DHT22;6021;51.182;3.160;2023-08-21T09:32:10;20.10;99.90
11922;DHT22;6021;51.182;3.160;2023-08-21T09:34:38;20.10;99.90
11922;DHT22;6021;51.182;3.160;2023-08-21T09:37:07;20.10;99.90
11922;DHT22;6021;51.182;3.160;2023-08-21T09:39:36;20.30;99.90
11922;DHT22;6021;51.182;3.160;2023-08-21T09:42:06;20.30;99.90
11922;DHT22;6021;51.182;3.160;2023-08-21T09:44:39;20.30;99.90
11922;DHT22;6021;51.182;3.160;2023-08-21T09:47:10;20.60;99.90
11922;DHT22;6021;51.182;3.160;2023-08-21T09:49:39;20.70;86.00
11922;DHT22;6021;51.182;3.160;2023-08-21T09:52:08;20.50;70.10
11922;DHT22;6021;51.182;3.160;2023-08-21T09:54:42;20.50;76.00
11922;DHT22;6021;51.182;3.160;2023-08-21T09:57:11;20.40;72.50
11922;DHT22;6021;51.182;3.160;2023-08-21T09:59:40;20.50;71.20
11922;DHT22;6021;51.182;3.160;2023-08-21T10:02:11;20.40;65.30
11922;DHT22;6021;51.182;3.160;2023-08-21T10:04:40;20.60;57.60
11922;DHT22;6021;51.182;3.160;2023-08-21T10:07:10;20.70;24.80
11922;DHT22;6021;51.182;3.160;2023-08-21T10:09:42;20.80;21.70
11922;DHT22;6021;51.182;3.160;2023-08-21T10:12:12;20.70;30.00
11922;DHT22;6021;51.182;3.160;2023-08-21T10:14:42;20.80;70.10
11922;DHT22;6021;51.182;3.160;2023-08-21T10:17:10;21.10;28.40
11922;DHT22;6021;51.182;3.160;2023-08-21T10:19:39;21.10;3.40
11922;DHT22;6021;51.182;3.160;2023-08-21T10:22:07;21.10;1.00
11922;DHT22;6021;51.182;3.160;2023-08-21T10:24:36;21.10;10.30
11922;DHT22;6021;51.182;3.160;2023-08-21T10:27:07;21.00;18.80
11922;DHT22;6021;51.182;3.160;2023-08-21T10:29:36;21.00;1.00
11922;DHT22;6021;51.182;3.160;2023-08-21T10:32:06;21.00;4.60
11922;DHT22;6021;51.182;3.160;2023-08-21T10:34:36;20.90;4.60
11922;DHT22;6021;51.182;3.160;2023-08-21T10:37:09;21.00;1.00
11922;DHT22;6021;51.182;3.160;2023-08-21T10:39:54;21.10;6.60
11922;DHT22;6021;51.182;3.160;2023-08-21T10:42:11;21.10;7.30
11922;DHT22;6021;51.182;3.160;2023-08-21T10:44:48;21.10;2.40
11922;DHT22;6021;51.182;3.160;2023-08-21T10:50:06;21.20;1.00
11922;DHT22;6021;51.182;3.160;2023-08-21T10:55:05;21.30;1.00
11922;DHT22;6021;51.182;3.160;2023-08-21T10:57:34;21.50;1.00
11922;DHT22;6021;51.182;3.160;2023-08-21T11:00:06;21.40;1.00
11922;DHT22;6021;51.182;3.160;2023-08-21T11:02:38;21.40;1.00
11922;DHT22;6021;51.182;3.160;2023-08-21T11:05:08;21.50;1.00
11922;DHT22;6021;51.182;3.160;2023-08-21T11:07:38;21.50;1.00
11922;DHT22;6021;51.182;3.160;2023-08-21T11:10:07;21.50;1.00
11922;DHT22;6021;51.182;3.160;2023-08-21T11:12:36;21.40;1.00
11922;DHT22;6021;51.182;3.160;2023-08-21T11:15:05;21.30;1.00
11922;DHT22;6021;51.182;3.160;2023-08-21T11:17:34;21.30;1.00
11922;DHT22;6021;51.182;3.160;2023-08-21T11:20:02;21.50;1.00
11922;DHT22;6021;51.182;3.160;2023-08-21T11:22:32;21.70;1.00
11922;DHT22;6021;51.182;3.160;2023-08-21T11:25:01;21.60;1.00
11922;DHT22;6021;51.182;3.160;2023-08-21T11:27:31;21.60;1.00
11922;DHT22;6021;51.182;3.160;2023-08-21T11:30:01;21.50;1.00
11922;DHT22;6021;51.182;3.160;2023-08-21T11:32:29;21.50;1.00
11922;DHT22;6021;51.182;3.160;2023-08-21T11:34:58;21.60;1.00
11922;DHT22;6021;51.182;3.160;2023-08-21T11:37:27;21.60;1.00
11922;DHT22;6021;51.182;3.160;2023-08-21T11:39:57;21.70;1.00
11922;DHT22;6021;51.182;3.160;2023-08-21T11:42:32;21.90;1.00
11922;DHT22;6021;51.182;3.160;2023-08-21T11:45:02;22.20;1.00
11922;DHT22;6021;51.182;3.160;2023-08-21T11:47:32;22.10;1.00
11922;DHT22;6021;51.182;3.160;2023-08-21T11:50:05;22.00;1.00
11922;DHT22;6021;51.182;3.160;2023-08-21T11:52:35;21.90;1.00
11922;DHT22;6021;51.182;3.160;2023-08-21T11:55:09;21.70;1.00
11922;DHT22;6021;51.182;3.160;2023-08-21T11:57:51;21.90;1.00
11922;DHT22;6021;51.182;3.160;2023-08-21T12:00:28;21.90;1.00
11922;DHT22;6021;51.182;3.160;2023-08-21T12:03:00;22.00;1.00
11922;DHT22;6021;51.182;3.160;2023-08-21T12:05:30;22.00;1.00
11922;DHT22;6021;51.182;3.160;2023-08-21T12:07:58;22.20;1.00
11922;DHT22;6021;51.182;3.160;2023-08-21T12:10:28;22.20;1.00
11922;DHT22;6021;51.182;3.160;2023-08-21T12:12:56;22.30;1.00
11922;DHT22;6021;51.182;3.160;2023-08-21T12:15:24;22.20;1.00
11922;DHT22;6021;51.182;3.160;2023-08-21T12:17:53;22.20;1.00
11922;DHT22;6021;51.182;3.160;2023-08-21T12:20:21;22.10;1.00
11922;DHT22;6021;51.182;3.160;2023-08-21T12:22:50;22.10;1.00
11922;DHT22;6021;51.182;3.160;2023-08-21T12:25:18;22.00;1.00
11922;DHT22;6021;51.182;3.160;2023-08-21T12:27:46;21.90;1.00
11922;DHT22;6021;51.182;3.160;2023-08-21T12:30:15;21.80;1.00
11922;DHT22;6021;51.182;3.160;2023-08-21T12:32:43;22.00;1.00
11922;DHT22;6021;51.182;3.160;2023-08-21T12:35:11;22.00;1.00
11922;DHT22;6021;51.182;3.160;2023-08-21T12:37:40;22.00;1.00
11922;DHT22;6021;51.182;3.160;2023-08-21T12:40:08;22.00;1.00
11922;DHT22;6021;51.182;3.160;2023-08-21T12:42:37;22.30;1.00
11922;DHT22;6021;51.182;3.160;2023-08-21T12:45:06;22.30;1.00
11922;DHT22;6021;51.182;3.160;2023-08-21T12:47:34;22.40;1.00
11922;DHT22;6021;51.182;3.160;2023-08-21T12:50:03;22.30;1.00
11922;DHT22;6021;51.182;3.160;2023-08-21T12:52:31;22.20;1.00
11922;DHT22;6021;51.182;3.160;2023-08-21T12:55:00;22.20;1.00
11922;DHT22;6021;51.182;3.160;2023-08-21T12:57:30;22.30;1.00
11922;DHT22;6021;51.182;3.160;2023-08-21T12:59:58;22.30;1.00
11922;DHT22;6021;51.182;3.160;2023-08-21T13:02:26;22.10;1.00
11922;DHT22;6021;51.182;3.160;2023-08-21T13:04:55;22.20;1.00
11922;DHT22;6021;51.182;3.160;2023-08-21T13:07:23;22.10;1.00
11922;DHT22;6021;51.182;3.160;2023-08-21T13:09:51;22.10;1.00
11922;DHT22;6021;51.182;3.160;2023-08-21T13:12:20;22.10;1.00
11922;DHT22;6021;51.182;3.160;2023-08-21T13:14:48;22.00;1.00
11922;DHT22;6021;51.182;3.160;2023-08-21T13:17:16;22.10;1.00
11922;DHT22;6021;51.182;3.160;2023-08-21T13:19:45;22.20;1.00
11922;DHT22;6021;51.182;3.160;2023-08-21T13:22:16;22.10;1.00
11922;DHT22;6021;51.182;3.160;2023-08-21T13:24:43;22.10;1.00
11922;DHT22;6021;51.182;3.160;2023-08-21T13:27:11;22.10;1.00
11922;DHT22;6021;51.182;3.160;2023-08-21T13:29:40;22.00;1.00
11922;DHT22;6021;51.182;3.160;2023-08-21T13:32:08;22.10;1.00
11922;DHT22;6021;51.182;3.160;2023-08-21T13:34:38;22.20;1.00
11922;DHT22;6021;51.182;3.160;2023-08-21T13:37:06;22.30;1.00
11922;DHT22;6021;51.182;3.160;2023-08-21T13:39:37;22.30;1.00
11922;DHT22;6021;51.182;3.160;2023-08-21T13:42:06;22.20;1.00
11922;DHT22;6021;51.182;3.160;2023-08-21T13:44:34;22.10;1.00
11922;DHT22;6021;51.182;3.160;2023-08-21T13:47:03;22.00;1.00
11922;DHT22;6021;51.182;3.160;2023-08-21T13:49:31;21.90;1.00
11922;DHT22;6021;51.182;3.160;2023-08-21T13:51:59;21.90;1.00
11922;DHT22;6021;51.182;3.160;2023-08-21T13:54:27;22.20;1.00
11922;DHT22;6021;51.182;3.160;2023-08-21T13:56:56;22.10;1.00
11922;DHT22;6021;51.182;3.160;2023-08-21T13:59:26;22.00;1.00
11922;DHT22;6021;51.182;3.160;2023-08-21T14:01:55;21.90;1.00
11922;DHT22;6021;51.182;3.160;2023-08-21T14:04:23;21.80;1.00
11922;DHT22;6021;51.182;3.160;2023-08-21T14:06:51;21.80;1.00
11922;DHT22;6021;51.182;3.160;2023-08-21T14:09:19;21.80;1.00
11922;DHT22;6021;51.182;3.160;2023-08-21T14:11:48;22.20;1.00
11922;DHT22;6021;51.182;3.160;2023-08-21T14:14:16;22.20;1.00
11922;DHT22;6021;51.182;3.160;2023-08-21T14:16:44;22.20;1.00
11922;DHT22;6021;51.182;3.160;2023-08-21T14:19:13;22.10;1.00
11922;DHT22;6021;51.182;3.160;2023-08-21T14:21:41;22.00;1.00
11922;DHT22;6021;51.182;3.160;2023-08-21T14:24:09;22.10;1.00
11922;DHT22;6021;51.182;3.160;2023-08-21T14:26:38;22.20;1.00
11922;DHT22;6021;51.182;3.160;2023-08-21T14:29:07;22.10;1.00
11922;DHT22;6021;51.182;3.160;2023-08-21T14:31:35;22.10;1.00
11922;DHT22;6021;51.182;3.160;2023-08-21T14:34:03;22.10;1.00
11922;DHT22;6021;51.182;3.160;2023-08-21T14:36:32;22.10;1.00
11922;DHT22;6021;51.182;3.160;2023-08-21T14:39:00;22.00;1.00
11922;DHT22;6021;51.182;3.160;2023-08-21T14:41:30;22.00;1.00
11922;DHT22;6021;51.182;3.160;2023-08-21T14:43:59;22.00;1.00
11922;DHT22;6021;51.182;3.160;2023-08-21T14:46:27;22.00;1.00
11922;DHT22;6021;51.182;3.160;2023-08-21T14:48:56;22.00;1.00
11922;DHT22;6021;51.182;3.160;2023-08-21T14:51:24;22.00;1.00
11922;DHT22;6021;51.182;3.160;2023-08-21T14:53:52;22.10;1.00
11922;DHT22;6021;51.182;3.160;2023-08-21T14:56:21;22.00;1.00
11922;DHT22;6021;51.182;3.160;2023-08-21T14:58:50;22.00;1.00
11922;DHT22;6021;51.182;3.160;2023-08-21T15:01:18;22.00;1.00
11922;DHT22;6021;51.182;3.160;2023-08-21T15:03:46;22.10;1.00
11922;DHT22;6021;51.182;3.160;2023-08-21T15:06:15;22.40;1.00
11922;DHT22;6021;51.182;3.160;2023-08-21T15:08:43;22.40;1.00
11922;DHT22;6021;51.182;3.160;2023-08-21T15:11:11;22.30;1.00
11922;DHT22;6021;51.182;3.160;2023-08-21T15:13:40;22.30;1.00
11922;DHT22;6021;51.182;3.160;2023-08-21T15:16:08;22.20;1.00
11922;DHT22;6021;51.182;3.160;2023-08-21T15:18:37;22.20;1.00
11922;DHT22;6021;51.182;3.160;2023-08-21T15:21:06;22.20;1.00
11922;DHT22;6021;51.182;3.160;2023-08-21T15:23:34;22.10;1.00
11922;DHT22;6021;51.182;3.160;2023-08-21T15:26:02;22.10;1.00
11922;DHT22;6021;51.182;3.160;2023-08-21T15:28:31;22.10;1.00
11922;DHT22;6021;51.182;3.160;2023-08-21T15:30:59;22.00;1.00
11922;DHT22;6021;51.182;3.160;2023-08-21T15:33:27;22.00;1.00
11922;DHT22;6021;51.182;3.160;2023-08-21T15:35:55;21.90;1.00
11922;DHT22;6021;51.182;3.160;2023-08-21T15:38:24;22.00;1.00
11922;DHT22;6021;51.182;3.160;2023-08-21T15:40:52;21.90;1.00
11922;DHT22;6021;51.182;3.160;2023-08-21T15:43:20;22.00;1.00
11922;DHT22;6021;51.182;3.160;2023-08-21T15:45:50;22.00;1.00
11922;DHT22;6021;51.182;3.160;2023-08-21T15:48:19;21.90;1.00
11922;DHT22;6021;51.182;3.160;2023-08-21T15:50:49;21.90;1.00
11922;DHT22;6021;51.182;3.160;2023-08-21T15:53:17;21.90;1.00
11922;DHT22;6021;51.182;3.160;2023-08-21T15:55:45;21.90;1.00
11922;DHT22;6021;51.182;3.160;2023-08-21T15:58:14;21.90;1.00
11922;DHT22;6021;51.182;3.160;2023-08-21T16:00:42;21.80;1.00
11922;DHT22;6021;51.182;3.160;2023-08-21T16:03:10;21.80;1.00
11922;DHT22;6021;51.182;3.160;2023-08-21T16:05:40;21.70;1.00
11922;DHT22;6021;51.182;3.160;2023-08-21T16:08:08;21.70;1.00
11922;DHT22;6021;51.182;3.160;2023-08-21T16:10:36;21.80;1.00
11922;DHT22;6021;51.182;3.160;2023-08-21T16:13:05;21.80;1.00